sensor_id;sensor_type;location;lat;lon;timestamp;P1;durP1;ratioP1;P2;durP2;ratioP2
23390;SDS011;11868;45.606;5.302;2024-01-15T00:01:16;39.97;;;21.90;;
23390;SDS011;11868;45.606;5.302;2024-01-15T00:03:41;39.60;;;22.75;;
23390;SDS011;11868;45.606;5.302;2024-01-15T00:06:06;40.00;;;23.20;;
23390;SDS011;11868;45.606;5.302;2024-01-15T00:08:32;40.80;;;23.13;;
23390;SDS011;11868;45.606;5.302;2024-01-15T00:10:57;44.53;;;24.25;;
23390;SDS011;11868;45.606;5.302;2024-01-15T00:13:22;42.22;;;24.10;;
23390;SDS011;11868;45.606;5.302;2024-01-15T00:15:47;42.50;;;24.75;;
23390;SDS011;11868;45.606;5.302;2024-01-15T00:18:13;42.72;;;24.73;;
23390;SDS011;11868;45.606;5.302;2024-01-15T00:20:38;42.47;;;22.65;;
23390;SDS011;11868;45.606;5.302;2024-01-15T00:23:03;43.13;;;23.00;;
23390;SDS011;11868;45.606;5.302;2024-01-15T00:25:29;39.00;;;23.23;;
23390;SDS011;11868;45.606;5.302;2024-01-15T00:27:54;43.58;;;22.85;;
23390;SDS011;11868;45.606;5.302;2024-01-15T00:30:19;41.70;;;23.30;;
23390;SDS011;11868;45.606;5.302;2024-01-15T00:32:45;39.20;;;22.27;;
23390;SDS011;11868;45.606;5.302;2024-01-15T00:35:10;43.45;;;23.70;;
23390;SDS011;11868;45.606;5.302;2024-01-15T00:37:35;41.38;;;22.88;;
23390;SDS011;11868;45.606;5.302;2024-01-15T00:40:01;42.83;;;23.45;;
23390;SDS011;11868;45.606;5.302;2024-01-15T00:42:26;40.38;;;21.63;;
23390;SDS011;11868;45.606;5.302;2024-01-15T00:44:52;36.00;;;21.35;;
23390;SDS011;11868;45.606;5.302;2024-01-15T00:47:19;40.92;;;21.73;;
23390;SDS011;11868;45.606;5.302;2024-01-15T00:49:44;43.67;;;24.25;;
23390;SDS011;11868;45.606;5.302;2024-01-15T00:52:10;45.03;;;24.80;;
23390;SDS011;11868;45.606;5.302;2024-01-15T00:54:35;40.17;;;24.08;;
23390;SDS011;11868;45.606;5.302;2024-01-15T00:57:00;45.38;;;24.83;;
23390;SDS011;11868;45.606;5.302;2024-01-15T00:59:26;42.97;;;24.88;;
23390;SDS011;11868;45.606;5.302;2024-01-15T01:01:51;44.15;;;24.25;;
23390;SDS011;11868;45.606;5.302;2024-01-15T01:04:17;43.53;;;24.98;;
23390;SDS011;11868;45.606;5.302;2024-01-15T01:06:42;43.10;;;24.10;;
23390;SDS011;11868;45.606;5.302;2024-01-15T01:09:07;44.95;;;25.05;;
23390;SDS011;11868;45.606;5.302;2024-01-15T01:11:33;46.85;;;24.73;;
23390;SDS011;11868;45.606;5.302;2024-01-15T01:13:58;43.08;;;24.08;;
23390;SDS011;11868;45.606;5.302;2024-01-15T01:16:23;47.85;;;23.65;;
23390;SDS011;11868;45.606;5.302;2024-01-15T01:18:49;39.58;;;23.73;;
23390;SDS011;11868;45.606;5.302;2024-01-15T01:21:14;43.15;;;22.27;;
23390;SDS011;11868;45.606;5.302;2024-01-15T01:23:39;46.42;;;23.33;;
23390;SDS011;11868;45.606;5.302;2024-01-15T01:26:05;42.90;;;23.95;;
23390;SDS011;11868;45.606;5.302;2024-01-15T01:28:30;39.08;;;22.90;;
23390;SDS011;11868;45.606;5.302;2024-01-15T01:30:55;42.88;;;23.63;;
23390;SDS011;11868;45.606;5.302;2024-01-15T01:33:21;51.00;;;25.98;;
23390;SDS011;11868;45.606;5.302;2024-01-15T01:35:46;46.00;;;25.55;;
23390;SDS011;11868;45.606;5.302;2024-01-15T01:38:12;45.20;;;26.45;;
23390;SDS011;11868;45.606;5.302;2024-01-15T01:40:37;44.67;;;25.58;;
23390;SDS011;11868;45.606;5.302;2024-01-15T01:43:04;43.65;;;24.15;;
23390;SDS011;11868;45.606;5.302;2024-01-15T01:45:30;43.88;;;24.30;;
23390;SDS011;11868;45.606;5.302;2024-01-15T01:47:55;43.78;;;25.08;;
23390;SDS011;11868;45.606;5.302;2024-01-15T01:50:20;46.55;;;26.10;;
23390;SDS011;11868;45.606;5.302;2024-01-15T01:52:46;45.55;;;26.58;;
23390;SDS011;11868;45.606;5.302;2024-01-15T01:55:11;49.08;;;23.60;;
23390;SDS011;11868;45.606;5.302;2024-01-15T01:57:37;40.78;;;23.98;;
23390;SDS011;11868;45.606;5.302;2024-01-15T02:00:03;63.83;;;33.03;;
23390;SDS011;11868;45.606;5.302;2024-01-15T02:02:29;42.45;;;24.63;;
23390;SDS011;11868;45.606;5.302;2024-01-15T02:04:56;44.72;;;25.13;;
23390;SDS011;11868;45.606;5.302;2024-01-15T02:07:21;53.63;;;28.30;;
23390;SDS011;11868;45.606;5.302;2024-01-15T02:09:47;47.20;;;26.73;;
23390;SDS011;11868;45.606;5.302;2024-01-15T02:12:13;46.90;;;27.10;;
23390;SDS011;11868;45.606;5.302;2024-01-15T02:14:39;51.45;;;30.38;;
23390;SDS011;11868;45.606;5.302;2024-01-15T02:17:05;60.78;;;39.03;;
23390;SDS011;11868;45.606;5.302;2024-01-15T02:19:30;56.97;;;35.83;;
23390;SDS011;11868;45.606;5.302;2024-01-15T02:21:55;44.25;;;24.95;;
23390;SDS011;11868;45.606;5.302;2024-01-15T02:24:20;44.45;;;24.48;;
23390;SDS011;11868;45.606;5.302;2024-01-15T02:26:46;51.97;;;29.05;;
23390;SDS011;11868;45.606;5.302;2024-01-15T02:29:11;45.28;;;24.52;;
23390;SDS011;11868;45.606;5.302;2024-01-15T02:31:37;37.88;;;22.88;;
23390;SDS011;11868;45.606;5.302;2024-01-15T02:34:03;40.08;;;22.45;;
23390;SDS011;11868;45.606;5.302;2024-01-15T02:36:28;40.55;;;23.08;;
23390;SDS011;11868;45.606;5.302;2024-01-15T02:38:53;42.95;;;23.08;;
23390;SDS011;11868;45.606;5.302;2024-01-15T02:41:18;43.70;;;22.85;;
23390;SDS011;11868;45.606;5.302;2024-01-15T02:43:44;37.75;;;22.48;;
23390;SDS011;11868;45.606;5.302;2024-01-15T02:46:09;41.30;;;22.48;;
23390;SDS011;11868;45.606;5.302;2024-01-15T02:48:34;41.28;;;22.50;;
23390;SDS011;11868;45.606;5.302;2024-01-15T02:51:00;41.90;;;23.42;;
23390;SDS011;11868;45.606;5.302;2024-01-15T02:53:26;41.33;;;23.42;;
23390;SDS011;11868;45.606;5.302;2024-01-15T02:55:51;35.28;;;21.40;;
23390;SDS011;11868;45.606;5.302;2024-01-15T02:58:17;42.55;;;23.40;;
23390;SDS011;11868;45.606;5.302;2024-01-15T03:00:42;38.53;;;22.80;;
23390;SDS011;11868;45.606;5.302;2024-01-15T03:03:08;47.63;;;24.63;;
23390;SDS011;11868;45.606;5.302;2024-01-15T03:05:33;46.95;;;27.25;;
23390;SDS011;11868;45.606;5.302;2024-01-15T03:07:59;50.60;;;29.83;;
23390;SDS011;11868;45.606;5.302;2024-01-15T03:10:24;46.67;;;27.17;;
23390;SDS011;11868;45.606;5.302;2024-01-15T03:12:49;44.20;;;24.88;;
23390;SDS011;11868;45.606;5.302;2024-01-15T03:15:15;42.17;;;24.80;;
23390;SDS011;11868;45.606;5.302;2024-01-15T03:17:43;56.25;;;32.63;;
23390;SDS011;11868;45.606;5.302;2024-01-15T03:20:09;44.08;;;26.38;;
23390;SDS011;11868;45.606;5.302;2024-01-15T03:22:34;42.08;;;24.63;;
23390;SDS011;11868;45.606;5.302;2024-01-15T03:25:00;43.20;;;25.17;;
23390;SDS011;11868;45.606;5.302;2024-01-15T03:27:25;42.40;;;25.27;;
23390;SDS011;11868;45.606;5.302;2024-01-15T03:29:51;44.25;;;25.20;;
23390;SDS011;11868;45.606;5.302;2024-01-15T03:32:16;47.38;;;26.15;;
23390;SDS011;11868;45.606;5.302;2024-01-15T03:34:42;49.83;;;29.65;;
23390;SDS011;11868;45.606;5.302;2024-01-15T03:37:07;97.88;;;58.92;;
23390;SDS011;11868;45.606;5.302;2024-01-15T03:39:32;65.85;;;37.50;;
23390;SDS011;11868;45.606;5.302;2024-01-15T03:41:58;48.97;;;28.10;;
23390;SDS011;11868;45.606;5.302;2024-01-15T03:44:23;49.20;;;25.83;;
23390;SDS011;11868;45.606;5.302;2024-01-15T03:46:48;42.05;;;24.15;;
23390;SDS011;11868;45.606;5.302;2024-01-15T03:49:14;48.30;;;28.60;;
23390;SDS011;11868;45.606;5.302;2024-01-15T03:51:39;58.50;;;32.13;;
23390;SDS011;11868;45.606;5.302;2024-01-15T03:54:04;54.90;;;29.80;;
23390;SDS011;11868;45.606;5.302;2024-01-15T03:56:30;46.83;;;28.95;;
23390;SDS011;11868;45.606;5.302;2024-01-15T03:58:55;42.10;;;25.48;;
23390;SDS011;11868;45.606;5.302;2024-01-15T04:01:20;48.28;;;26.45;;
23390;SDS011;11868;45.606;5.302;2024-01-15T04:03:46;45.05;;;25.13;;
23390;SDS011;11868;45.606;5.302;2024-01-15T04:06:11;43.05;;;24.77;;
23390;SDS011;11868;45.606;5.302;2024-01-15T04:08:36;46.17;;;26.60;;
23390;SDS011;11868;45.606;5.302;2024-01-15T04:11:02;43.92;;;25.35;;
23390;SDS011;11868;45.606;5.302;2024-01-15T04:13:27;41.80;;;24.55;;
23390;SDS011;11868;45.606;5.302;2024-01-15T04:15:52;41.45;;;24.80;;
23390;SDS011;11868;45.606;5.302;2024-01-15T04:18:18;46.25;;;26.00;;
23390;SDS011;11868;45.606;5.302;2024-01-15T04:20:43;43.25;;;24.27;;
23390;SDS011;11868;45.606;5.302;2024-01-15T04:23:08;46.80;;;26.40;;
23390;SDS011;11868;45.606;5.302;2024-01-15T04:25:34;46.10;;;26.38;;
23390;SDS011;11868;45.606;5.302;2024-01-15T04:27:59;46.42;;;26.35;;
23390;SDS011;11868;45.606;5.302;2024-01-15T04:30:25;45.70;;;24.85;;
23390;SDS011;11868;45.606;5.302;2024-01-15T04:32:50;42.80;;;24.20;;
23390;SDS011;11868;45.606;5.302;2024-01-15T04:35:15;39.83;;;24.35;;
23390;SDS011;11868;45.606;5.302;2024-01-15T04:37:41;42.88;;;24.42;;
23390;SDS011;11868;45.606;5.302;2024-01-15T04:40:06;41.75;;;24.25;;
23390;SDS011;11868;45.606;5.302;2024-01-15T04:42:33;44.38;;;24.70;;
23390;SDS011;11868;45.606;5.302;2024-01-15T04:44:59;33.67;;;19.02;;
23390;SDS011;11868;45.606;5.302;2024-01-15T04:47:24;34.15;;;18.65;;
23390;SDS011;11868;45.606;5.302;2024-01-15T04:49:49;32.72;;;19.08;;
23390;SDS011;11868;45.606;5.302;2024-01-15T04:52:15;32.97;;;20.02;;
23390;SDS011;11868;45.606;5.302;2024-01-15T04:54:40;41.65;;;22.63;;
23390;SDS011;11868;45.606;5.302;2024-01-15T04:57:05;43.88;;;25.80;;
23390;SDS011;11868;45.606;5.302;2024-01-15T04:59:31;48.15;;;26.95;;
23390;SDS011;11868;45.606;5.302;2024-01-15T05:01:56;46.22;;;26.05;;
23390;SDS011;11868;45.606;5.302;2024-01-15T05:04:22;44.42;;;25.30;;
23390;SDS011;11868;45.606;5.302;2024-01-15T05:06:47;45.08;;;26.00;;
23390;SDS011;11868;45.606;5.302;2024-01-15T05:09:12;48.83;;;25.67;;
23390;SDS011;11868;45.606;5.302;2024-01-15T05:11:40;46.25;;;25.95;;
23390;SDS011;11868;45.606;5.302;2024-01-15T05:14:06;44.60;;;25.30;;
23390;SDS011;11868;45.606;5.302;2024-01-15T05:16:31;46.90;;;25.23;;
23390;SDS011;11868;45.606;5.302;2024-01-15T05:18:56;41.63;;;23.20;;
23390;SDS011;11868;45.606;5.302;2024-01-15T05:21:22;48.72;;;23.17;;
23390;SDS011;11868;45.606;5.302;2024-01-15T05:23:47;41.33;;;25.35;;
23390;SDS011;11868;45.606;5.302;2024-01-15T05:26:13;44.63;;;25.13;;
23390;SDS011;11868;45.606;5.302;2024-01-15T05:28:38;44.60;;;24.67;;
23390;SDS011;11868;45.606;5.302;2024-01-15T05:31:05;43.75;;;25.05;;
23390;SDS011;11868;45.606;5.302;2024-01-15T05:33:30;43.92;;;24.38;;
23390;SDS011;11868;45.606;5.302;2024-01-15T05:35:55;46.70;;;25.02;;
23390;SDS011;11868;45.606;5.302;2024-01-15T05:38:21;43.78;;;24.92;;
23390;SDS011;11868;45.606;5.302;2024-01-15T05:40:46;45.38;;;25.27;;
23390;SDS011;11868;45.606;5.302;2024-01-15T05:43:11;46.60;;;24.98;;
23390;SDS011;11868;45.606;5.302;2024-01-15T05:45:38;43.13;;;24.42;;
23390;SDS011;11868;45.606;5.302;2024-01-15T05:48:03;46.03;;;24.65;;
23390;SDS011;11868;45.606;5.302;2024-01-15T05:50:29;48.20;;;26.50;;
23390;SDS011;11868;45.606;5.302;2024-01-15T05:52:54;50.78;;;26.95;;
23390;SDS011;11868;45.606;5.302;2024-01-15T05:55:20;47.08;;;25.65;;
23390;SDS011;11868;45.606;5.302;2024-01-15T05:57:45;44.67;;;24.92;;
23390;SDS011;11868;45.606;5.302;2024-01-15T06:00:11;45.40;;;26.77;;
23390;SDS011;11868;45.606;5.302;2024-01-15T06:02:39;47.97;;;25.85;;
23390;SDS011;11868;45.606;5.302;2024-01-15T06:05:05;44.50;;;24.77;;
23390;SDS011;11868;45.606;5.302;2024-01-15T06:07:31;44.63;;;25.55;;
23390;SDS011;11868;45.606;5.302;2024-01-15T06:09:58;47.13;;;26.40;;
23390;SDS011;11868;45.606;5.302;2024-01-15T06:12:24;47.20;;;25.98;;
23390;SDS011;11868;45.606;5.302;2024-01-15T06:14:49;49.05;;;26.35;;
23390;SDS011;11868;45.606;5.302;2024-01-15T06:17:14;54.25;;;30.95;;
23390;SDS011;11868;45.606;5.302;2024-01-15T06:19:40;105.28;;;54.50;;
23390;SDS011;11868;45.606;5.302;2024-01-15T06:22:05;68.10;;;38.42;;
23390;SDS011;11868;45.606;5.302;2024-01-15T06:24:30;86.03;;;47.58;;
23390;SDS011;11868;45.606;5.302;2024-01-15T06:26:55;78.95;;;45.17;;
23390;SDS011;11868;45.606;5.302;2024-01-15T06:29:21;200.20;;;84.60;;
23390;SDS011;11868;45.606;5.302;2024-01-15T06:31:46;114.78;;;54.33;;
23390;SDS011;11868;45.606;5.302;2024-01-15T06:34:12;191.65;;;93.68;;
23390;SDS011;11868;45.606;5.302;2024-01-15T06:36:37;78.93;;;40.72;;
23390;SDS011;11868;45.606;5.302;2024-01-15T06:39:03;96.03;;;53.75;;
23390;SDS011;11868;45.606;5.302;2024-01-15T06:41:28;64.75;;;38.63;;
23390;SDS011;11868;45.606;5.302;2024-01-15T06:43:54;48.40;;;27.55;;
23390;SDS011;11868;45.606;5.302;2024-01-15T06:46:21;46.15;;;26.38;;
23390;SDS011;11868;45.606;5.302;2024-01-15T06:48:46;52.17;;;24.85;;
23390;SDS011;11868;45.606;5.302;2024-01-15T06:51:12;47.00;;;26.20;;
23390;SDS011;11868;45.606;5.302;2024-01-15T06:53:37;48.97;;;25.85;;
23390;SDS011;11868;45.606;5.302;2024-01-15T06:56:02;51.20;;;28.15;;
23390;SDS011;11868;45.606;5.302;2024-01-15T06:58:28;46.33;;;26.65;;
23390;SDS011;11868;45.606;5.302;2024-01-15T07:00:53;43.95;;;25.27;;
23390;SDS011;11868;45.606;5.302;2024-01-15T07:03:18;48.30;;;25.35;;
23390;SDS011;11868;45.606;5.302;2024-01-15T07:05:44;47.00;;;26.42;;
23390;SDS011;11868;45.606;5.302;2024-01-15T07:08:09;46.10;;;26.40;;
23390;SDS011;11868;45.606;5.302;2024-01-15T07:10:34;49.10;;;27.95;;
23390;SDS011;11868;45.606;5.302;2024-01-15T07:13:00;54.03;;;28.00;;
23390;SDS011;11868;45.606;5.302;2024-01-15T07:15:25;44.10;;;26.38;;
23390;SDS011;11868;45.606;5.302;2024-01-15T07:17:51;47.97;;;27.77;;
23390;SDS011;11868;45.606;5.302;2024-01-15T07:20:16;49.70;;;27.20;;
23390;SDS011;11868;45.606;5.302;2024-01-15T07:22:42;50.10;;;25.55;;
23390;SDS011;11868;45.606;5.302;2024-01-15T07:25:07;48.55;;;26.95;;
23390;SDS011;11868;45.606;5.302;2024-01-15T07:27:33;48.88;;;27.00;;
23390;SDS011;11868;45.606;5.302;2024-01-15T07:29:58;50.33;;;28.40;;
23390;SDS011;11868;45.606;5.302;2024-01-15T07:32:24;51.25;;;27.23;;
23390;SDS011;11868;45.606;5.302;2024-01-15T07:34:49;48.25;;;26.55;;
23390;SDS011;11868;45.606;5.302;2024-01-15T07:37:14;47.03;;;27.85;;
23390;SDS011;11868;45.606;5.302;2024-01-15T07:39:40;49.20;;;28.45;;
23390;SDS011;11868;45.606;5.302;2024-01-15T07:42:05;47.28;;;27.75;;
23390;SDS011;11868;45.606;5.302;2024-01-15T07:44:31;49.72;;;27.65;;
23390;SDS011;11868;45.606;5.302;2024-01-15T07:46:56;48.03;;;26.92;;
23390;SDS011;11868;45.606;5.302;2024-01-15T07:49:21;55.47;;;27.92;;
23390;SDS011;11868;45.606;5.302;2024-01-15T07:51:48;48.63;;;26.85;;
23390;SDS011;11868;45.606;5.302;2024-01-15T07:54:13;52.78;;;28.63;;
23390;SDS011;11868;45.606;5.302;2024-01-15T07:56:55;53.03;;;29.60;;
23390;SDS011;11868;45.606;5.302;2024-01-15T07:59:20;53.10;;;28.85;;
23390;SDS011;11868;45.606;5.302;2024-01-15T08:01:45;51.63;;;27.75;;
23390;SDS011;11868;45.606;5.302;2024-01-15T08:04:12;53.88;;;29.88;;
23390;SDS011;11868;45.606;5.302;2024-01-15T08:06:38;54.17;;;30.13;;
23390;SDS011;11868;45.606;5.302;2024-01-15T08:09:03;51.42;;;28.48;;
23390;SDS011;11868;45.606;5.302;2024-01-15T08:11:29;51.42;;;28.60;;
23390;SDS011;11868;45.606;5.302;2024-01-15T08:13:55;51.10;;;29.42;;
23390;SDS011;11868;45.606;5.302;2024-01-15T08:16:20;54.65;;;29.10;;
23390;SDS011;11868;45.606;5.302;2024-01-15T08:18:46;50.60;;;29.63;;
23390;SDS011;11868;45.606;5.302;2024-01-15T08:21:12;51.15;;;29.33;;
23390;SDS011;11868;45.606;5.302;2024-01-15T08:23:37;55.80;;;29.65;;
23390;SDS011;11868;45.606;5.302;2024-01-15T08:26:02;53.83;;;30.55;;
23390;SDS011;11868;45.606;5.302;2024-01-15T08:28:28;53.05;;;30.80;;
23390;SDS011;11868;45.606;5.302;2024-01-15T08:30:54;50.20;;;29.35;;
23390;SDS011;11868;45.606;5.302;2024-01-15T08:33:19;50.22;;;29.48;;
23390;SDS011;11868;45.606;5.302;2024-01-15T08:35:44;50.40;;;27.95;;
23390;SDS011;11868;45.606;5.302;2024-01-15T08:38:10;52.65;;;28.83;;
23390;SDS011;11868;45.606;5.302;2024-01-15T08:40:35;49.50;;;28.48;;
23390;SDS011;11868;45.606;5.302;2024-01-15T08:43:01;51.42;;;28.60;;
23390;SDS011;11868;45.606;5.302;2024-01-15T08:45:27;49.78;;;28.13;;
23390;SDS011;11868;45.606;5.302;2024-01-15T08:47:52;51.83;;;27.30;;
23390;SDS011;11868;45.606;5.302;2024-01-15T08:50:17;48.58;;;27.23;;
23390;SDS011;11868;45.606;5.302;2024-01-15T08:52:43;46.50;;;27.50;;
23390;SDS011;11868;45.606;5.302;2024-01-15T08:55:08;51.25;;;28.25;;
23390;SDS011;11868;45.606;5.302;2024-01-15T08:57:33;44.53;;;26.75;;
23390;SDS011;11868;45.606;5.302;2024-01-15T08:59:59;50.08;;;27.05;;
23390;SDS011;11868;45.606;5.302;2024-01-15T09:02:25;50.17;;;27.10;;
23390;SDS011;11868;45.606;5.302;2024-01-15T09:04:50;49.60;;;27.85;;
23390;SDS011;11868;45.606;5.302;2024-01-15T09:07:16;44.05;;;26.70;;
23390;SDS011;11868;45.606;5.302;2024-01-15T09:09:42;46.42;;;26.40;;
23390;SDS011;11868;45.606;5.302;2024-01-15T09:12:07;45.90;;;27.13;;
23390;SDS011;11868;45.606;5.302;2024-01-15T09:14:33;49.83;;;26.88;;
23390;SDS011;11868;45.606;5.302;2024-01-15T09:16:59;47.60;;;26.98;;
23390;SDS011;11868;45.606;5.302;2024-01-15T09:19:24;45.50;;;26.10;;
23390;SDS011;11868;45.606;5.302;2024-01-15T09:21:50;46.10;;;25.15;;
23390;SDS011;11868;45.606;5.302;2024-01-15T09:24:15;44.45;;;25.73;;
23390;SDS011;11868;45.606;5.302;2024-01-15T09:26:41;47.50;;;26.42;;
23390;SDS011;11868;45.606;5.302;2024-01-15T09:29:06;49.13;;;29.35;;
23390;SDS011;11868;45.606;5.302;2024-01-15T09:31:31;54.20;;;31.08;;
23390;SDS011;11868;45.606;5.302;2024-01-15T09:33:56;57.60;;;32.75;;
23390;SDS011;11868;45.606;5.302;2024-01-15T09:36:24;229.63;;;103.65;;
23390;SDS011;11868;45.606;5.302;2024-01-15T09:38:50;210.82;;;94.80;;
23390;SDS011;11868;45.606;5.302;2024-01-15T09:41:16;274.65;;;117.72;;
23390;SDS011;11868;45.606;5.302;2024-01-15T09:43:41;186.93;;;85.85;;
23390;SDS011;11868;45.606;5.302;2024-01-15T09:46:07;70.68;;;37.85;;
23390;SDS011;11868;45.606;5.302;2024-01-15T09:48:33;75.88;;;40.58;;
23390;SDS011;11868;45.606;5.302;2024-01-15T09:50:59;135.85;;;82.97;;
23390;SDS011;11868;45.606;5.302;2024-01-15T09:53:26;155.02;;;83.72;;
23390;SDS011;11868;45.606;5.302;2024-01-15T09:55:52;64.05;;;36.85;;
23390;SDS011;11868;45.606;5.302;2024-01-15T09:58:18;71.30;;;39.72;;
23390;SDS011;11868;45.606;5.302;2024-01-15T10:00:44;69.38;;;37.67;;
23390;SDS011;11868;45.606;5.302;2024-01-15T10:03:09;140.43;;;81.10;;
23390;SDS011;11868;45.606;5.302;2024-01-15T10:05:36;66.65;;;39.42;;
23390;SDS011;11868;45.606;5.302;2024-01-15T10:08:02;70.88;;;39.25;;
23390;SDS011;11868;45.606;5.302;2024-01-15T10:10:28;113.70;;;64.32;;
23390;SDS011;11868;45.606;5.302;2024-01-15T10:12:53;74.38;;;43.35;;
23390;SDS011;11868;45.606;5.302;2024-01-15T10:15:22;62.65;;;34.97;;
23390;SDS011;11868;45.606;5.302;2024-01-15T10:17:48;55.33;;;33.38;;
23390;SDS011;11868;45.606;5.302;2024-01-15T10:20:13;55.20;;;31.85;;
23390;SDS011;11868;45.606;5.302;2024-01-15T10:22:42;53.50;;;31.23;;
23390;SDS011;11868;45.606;5.302;2024-01-15T10:25:11;52.40;;;30.27;;
23390;SDS011;11868;45.606;5.302;2024-01-15T10:27:37;56.78;;;32.83;;
23390;SDS011;11868;45.606;5.302;2024-01-15T10:30:03;55.50;;;30.88;;
23390;SDS011;11868;45.606;5.302;2024-01-15T10:32:28;51.83;;;30.50;;
23390;SDS011;11868;45.606;5.302;2024-01-15T10:34:54;55.60;;;30.92;;
23390;SDS011;11868;45.606;5.302;2024-01-15T10:37:19;50.67;;;27.88;;
23390;SDS011;11868;45.606;5.302;2024-01-15T10:39:46;41.28;;;24.52;;
23390;SDS011;11868;45.606;5.302;2024-01-15T10:42:11;50.03;;;27.92;;
23390;SDS011;11868;45.606;5.302;2024-01-15T10:44:36;46.35;;;26.95;;
23390;SDS011;11868;45.606;5.302;2024-01-15T10:47:02;47.13;;;27.52;;
23390;SDS011;11868;45.606;5.302;2024-01-15T10:49:28;51.17;;;28.20;;
23390;SDS011;11868;45.606;5.302;2024-01-15T10:51:54;49.60;;;28.27;;
23390;SDS011;11868;45.606;5.302;2024-01-15T10:54:21;53.35;;;29.45;;
23390;SDS011;11868;45.606;5.302;2024-01-15T10:56:48;52.10;;;29.55;;
23390;SDS011;11868;45.606;5.302;2024-01-15T10:59:16;48.80;;;27.55;;
23390;SDS011;11868;45.606;5.302;2024-01-15T11:01:42;48.58;;;27.63;;
23390;SDS011;11868;45.606;5.302;2024-01-15T11:04:08;44.05;;;26.98;;
23390;SDS011;11868;45.606;5.302;2024-01-15T11:06:47;43.67;;;24.65;;
23390;SDS011;11868;45.606;5.302;2024-01-15T11:09:15;45.95;;;27.00;;
23390;SDS011;11868;45.606;5.302;2024-01-15T11:11:46;45.53;;;24.98;;
23390;SDS011;11868;45.606;5.302;2024-01-15T11:14:33;46.05;;;25.85;;
23390;SDS011;11868;45.606;5.302;2024-01-15T11:17:13;41.83;;;23.75;;
23390;SDS011;11868;45.606;5.302;2024-01-15T11:24:38;39.25;;;23.20;;
23390;SDS011;11868;45.606;5.302;2024-01-15T11:27:04;38.50;;;23.55;;
23390;SDS011;11868;45.606;5.302;2024-01-15T11:29:31;45.70;;;25.55;;
23390;SDS011;11868;45.606;5.302;2024-01-15T11:32:09;45.40;;;25.98;;
23390;SDS011;11868;45.606;5.302;2024-01-15T11:34:51;49.05;;;25.33;;
23390;SDS011;11868;45.606;5.302;2024-01-15T11:37:17;51.25;;;27.33;;
23390;SDS011;11868;45.606;5.302;2024-01-15T11:39:43;52.92;;;28.98;;
23390;SDS011;11868;45.606;5.302;2024-01-15T11:42:09;47.78;;;28.23;;
23390;SDS011;11868;45.606;5.302;2024-01-15T11:44:36;46.97;;;27.52;;
23390;SDS011;11868;45.606;5.302;2024-01-15T11:47:05;48.33;;;28.45;;
23390;SDS011;11868;45.606;5.302;2024-01-15T11:52:16;44.92;;;26.25;;
23390;SDS011;11868;45.606;5.302;2024-01-15T11:54:44;40.53;;;23.08;;
23390;SDS011;11868;45.606;5.302;2024-01-15T11:57:16;40.88;;;24.15;;
23390;SDS011;11868;45.606;5.302;2024-01-15T11:59:50;40.35;;;24.17;;
23390;SDS011;11868;45.606;5.302;2024-01-15T12:02:15;40.35;;;23.20;;
23390;SDS011;11868;45.606;5.302;2024-01-15T12:04:40;44.53;;;24.25;;
23390;SDS011;11868;45.606;5.302;2024-01-15T12:07:06;41.58;;;24.10;;
23390;SDS011;11868;45.606;5.302;2024-01-15T12:09:31;39.97;;;23.02;;
23390;SDS011;11868;45.606;5.302;2024-01-15T12:12:02;37.25;;;22.20;;
23390;SDS011;11868;45.606;5.302;2024-01-15T12:14:32;33.65;;;21.42;;
23390;SDS011;11868;45.606;5.302;2024-01-15T12:16:57;40.92;;;22.83;;
23390;SDS011;11868;45.606;5.302;2024-01-15T12:19:22;39.58;;;21.83;;
23390;SDS011;11868;45.606;5.302;2024-01-15T12:21:50;37.88;;;21.05;;
23390;SDS011;11868;45.606;5.302;2024-01-15T12:24:16;35.45;;;21.27;;
23390;SDS011;11868;45.606;5.302;2024-01-15T12:26:42;34.92;;;21.08;;
23390;SDS011;11868;45.606;5.302;2024-01-15T12:29:07;34.55;;;21.25;;
23390;SDS011;11868;45.606;5.302;2024-01-15T12:31:33;35.72;;;21.75;;
23390;SDS011;11868;45.606;5.302;2024-01-15T12:33:58;35.78;;;22.42;;
23390;SDS011;11868;45.606;5.302;2024-01-15T12:36:23;34.45;;;21.08;;
23390;SDS011;11868;45.606;5.302;2024-01-15T12:38:49;36.35;;;21.10;;
23390;SDS011;11868;45.606;5.302;2024-01-15T12:41:14;33.42;;;20.30;;
23390;SDS011;11868;45.606;5.302;2024-01-15T12:43:40;29.55;;;19.25;;
23390;SDS011;11868;45.606;5.302;2024-01-15T12:46:05;27.73;;;17.33;;
23390;SDS011;11868;45.606;5.302;2024-01-15T12:48:31;31.30;;;18.00;;
23390;SDS011;11868;45.606;5.302;2024-01-15T12:50:56;30.65;;;18.50;;
23390;SDS011;11868;45.606;5.302;2024-01-15T12:53:21;26.55;;;17.42;;
23390;SDS011;11868;45.606;5.302;2024-01-15T12:55:47;28.45;;;17.80;;
23390;SDS011;11868;45.606;5.302;2024-01-15T12:58:12;28.05;;;16.42;;
23390;SDS011;11868;45.606;5.302;2024-01-15T13:00:38;30.08;;;17.85;;
23390;SDS011;11868;45.606;5.302;2024-01-15T13:03:04;27.83;;;17.77;;
23390;SDS011;11868;45.606;5.302;2024-01-15T13:05:29;29.35;;;16.00;;
23390;SDS011;11868;45.606;5.302;2024-01-15T13:07:56;24.13;;;15.50;;
23390;SDS011;11868;45.606;5.302;2024-01-15T13:10:21;28.00;;;17.17;;
23390;SDS011;11868;45.606;5.302;2024-01-15T13:12:47;29.60;;;18.23;;
23390;SDS011;11868;45.606;5.302;2024-01-15T13:15:12;31.90;;;19.10;;
23390;SDS011;11868;45.606;5.302;2024-01-15T13:17:38;34.15;;;22.10;;
23390;SDS011;11868;45.606;5.302;2024-01-15T13:20:05;34.13;;;20.45;;
23390;SDS011;11868;45.606;5.302;2024-01-15T13:22:31;28.05;;;18.17;;
23390;SDS011;11868;45.606;5.302;2024-01-15T13:24:57;28.70;;;18.38;;
23390;SDS011;11868;45.606;5.302;2024-01-15T13:27:23;33.45;;;20.23;;
23390;SDS011;11868;45.606;5.302;2024-01-15T13:29:48;35.45;;;21.55;;
23390;SDS011;11868;45.606;5.302;2024-01-15T13:32:13;34.85;;;20.38;;
23390;SDS011;11868;45.606;5.302;2024-01-15T13:34:43;28.33;;;18.02;;
23390;SDS011;11868;45.606;5.302;2024-01-15T13:37:08;29.63;;;18.60;;
23390;SDS011;11868;45.606;5.302;2024-01-15T13:39:34;31.17;;;19.00;;
23390;SDS011;11868;45.606;5.302;2024-01-15T13:42:01;31.58;;;17.83;;
23390;SDS011;11868;45.606;5.302;2024-01-15T13:44:27;30.63;;;18.42;;
23390;SDS011;11868;45.606;5.302;2024-01-15T13:46:52;28.35;;;18.63;;
23390;SDS011;11868;45.606;5.302;2024-01-15T13:49:18;32.30;;;19.73;;
23390;SDS011;11868;45.606;5.302;2024-01-15T13:51:43;27.85;;;18.13;;
23390;SDS011;11868;45.606;5.302;2024-01-15T13:54:08;28.85;;;20.02;;
23390;SDS011;11868;45.606;5.302;2024-01-15T13:56:34;30.50;;;20.38;;
23390;SDS011;11868;45.606;5.302;2024-01-15T13:59:01;31.38;;;19.45;;
23390;SDS011;11868;45.606;5.302;2024-01-15T14:01:29;34.55;;;19.92;;
23390;SDS011;11868;45.606;5.302;2024-01-15T14:03:54;29.00;;;19.30;;
23390;SDS011;11868;45.606;5.302;2024-01-15T14:06:19;32.20;;;19.73;;
23390;SDS011;11868;45.606;5.302;2024-01-15T14:08:45;30.75;;;19.25;;
23390;SDS011;11868;45.606;5.302;2024-01-15T14:11:10;32.85;;;20.70;;
23390;SDS011;11868;45.606;5.302;2024-01-15T14:13:35;32.53;;;19.35;;
23390;SDS011;11868;45.606;5.302;2024-01-15T14:16:01;38.05;;;22.58;;
23390;SDS011;11868;45.606;5.302;2024-01-15T14:18:27;42.00;;;23.92;;
23390;SDS011;11868;45.606;5.302;2024-01-15T14:20:52;40.55;;;25.50;;